Time;durP1;ratioP1;P1;durP2;ratioP2;P2;SDS_P1;SDS_P2;PMS_P1;PMS_P2;Temp;Humidity;BMP_temperature;BMP_pressure;BME280_temperature;BME280_humidity;BME280_pressure;Samples;Min_cycle;Max_cycle;Signal;HPM_P1;HPM_P2
2023/08/19 00:00:26;;;;;;;9.85;3.97;;;;;;;25.05;62.76;100330.50;4111783;28;19961;-70
2023/08/19 00:02:29;;;;;;;12.10;4.18;;;;;;;25.05;62.99;100325.19;4109974;28;20038;-70
2023/08/19 00:04:32;;;;;;;6.93;3.75;;;;;;;25.03;63.05;100324.41;4108984;28;20054;-70
2023/08/19 00:06:37;;;;;;;8.80;3.70;;;;;;;25.01;63.33;100317.41;4107962;28;20543;-70
2023/08/19 00:08:40;;;;;;;14.45;4.45;;;;;;;24.97;63.31;100321.16;4107823;28;20094;-70
2023/08/19 00:10:44;;;;;;;12.65;4.00;;;;;;;24.96;63.31;100322.97;4114455;28;20056;-69
2023/08/19 00:12:48;;;;;;;9.52;4.68;;;;;;;24.91;63.30;100312.56;4111675;28;20117;-70
2023/08/19 00:14:54;;;;;;;9.30;4.00;;;;;;;24.89;63.43;100321.53;4114190;28;20081;-71
2023/08/19 00:16:57;;;;;;;10.40;4.32;;;;;;;24.89;63.29;100317.06;4110290;28;20039;-70
2023/08/19 00:19:01;;;;;;;7.97;4.53;;;;;;;24.89;63.23;100310.91;4115670;28;20046;-70
2023/08/19 00:21:04;;;;;;;9.95;4.22;;;;;;;24.85;63.52;100320.84;4108736;28;20039;-70
2023/08/19 00:23:07;;;;;;;10.77;3.88;;;;;;;24.83;63.59;100316.50;4113139;28;20134;-70
2023/08/19 00:25:09;;;;;;;11.75;4.40;;;;;;;24.82;63.65;100320.94;4116145;28;20097;-70
2023/08/19 00:27:13;;;;;;;12.23;4.75;;;;;;;24.82;63.49;100318.28;4110210;28;20045;-71
2023/08/19 00:29:19;;;;;;;8.77;3.80;;;;;;;24.80;63.26;100316.66;4106784;28;20031;-70
2023/08/19 00:31:25;;;;;;;9.32;4.20;;;;;;;24.78;63.38;100322.06;4114238;23;20059;-69
2023/08/19 00:33:28;;;;;;;8.15;4.13;;;;;;;24.78;63.48;100321.19;4095235;29;20043;-69
2023/08/19 00:35:34;;;;;;;11.32;4.05;;;;;;;24.78;63.66;100322.06;4086907;29;20051;-69
2023/08/19 00:37:37;;;;;;;11.30;4.05;;;;;;;24.77;63.96;100322.97;4077441;29;20036;-69
2023/08/19 00:39:40;;;;;;;6.72;4.20;;;;;;;24.73;64.36;100316.94;4105337;28;20039;-69
2023/08/19 00:41:45;;;;;;;10.73;3.78;;;;;;;24.72;64.50;100315.22;4084294;28;20123;-69
2023/08/19 00:43:48;;;;;;;7.45;3.67;;;;;;;24.71;64.72;100315.31;4083418;29;20044;-69
2023/08/19 00:45:52;;;;;;;7.95;3.63;;;;;;;24.69;64.88;100325.13;4083284;29;20074;-69
2023/08/19 00:47:55;;;;;;;10.32;4.10;;;;;;;24.64;65.06;100325.34;4073585;29;20055;-69
2023/08/19 00:49:58;;;;;;;8.65;3.58;;;;;;;24.62;64.44;100324.56;4082718;29;20079;-69
2023/08/19 00:52:02;;;;;;;7.90;3.78;;;;;;;24.61;64.26;100333.47;4082411;29;20043;-69
2023/08/19 00:54:05;;;;;;;;;;;;;;;24.51;64.52;100332.13;4083494;29;20043;-69
2023/08/19 00:56:09;;;;;;;8.05;4.22;;;;;;;24.54;64.22;100338.16;4082070;29;20274;-69
2023/08/19 00:58:11;;;;;;;8.15;3.83;;;;;;;24.54;64.04;100332.00;4097244;29;20043;-69
2023/08/19 01:00:15;;;;;;;6.40;3.80;;;;;;;24.55;64.09;100339.03;4066415;29;20048;-69
2023/08/19 01:02:19;;;;;;;11.03;3.80;;;;;;;24.56;64.06;100333.66;4083134;29;20545;-69
2023/08/19 01:04:22;;;;;;;12.82;3.30;;;;;;;24.58;64.12;100330.94;4083232;29;20082;-68
2023/08/19 01:06:27;;;;;;;9.05;4.35;;;;;;;24.57;64.12;100331.84;4082327;29;20047;-69
2023/08/19 01:08:39;;;;;;;6.95;4.15;;;;;;;24.58;64.22;100329.13;4083392;29;20076;-69
2023/08/19 01:10:49;;;;;;;10.25;3.78;;;;;;;24.58;64.58;100322.94;4083340;29;20549;-69
2023/08/19 01:13:03;;;;;;;15.13;4.70;;;;;;;24.53;64.66;100325.81;4082455;29;20486;-69
2023/08/19 01:15:11;;;;;;;7.35;4.55;;;;;;;24.53;64.78;100328.47;4082302;29;20526;-69
2023/08/19 01:17:18;;;;;;;9.50;3.60;;;;;;;24.53;65.08;100325.81;4066166;29;20052;-69
2023/08/19 01:19:24;;;;;;;8.82;4.28;;;;;;;24.51;65.54;100322.34;4082370;29;20456;-69
2023/08/19 01:21:28;;;;;;;5.68;3.53;;;;;;;24.44;65.57;100326.22;4081706;29;20046;-70
2023/08/19 01:23:34;;;;;;;8.80;3.78;;;;;;;24.46;65.50;100320.84;4094475;29;20493;-69
2023/08/19 01:25:41;;;;;;;8.05;2.92;;;;;;;24.48;65.54;100321.66;4075620;29;20131;-69
2023/08/19 01:27:44;;;;;;;13.43;3.78;;;;;;;24.51;65.73;100321.50;4082033;29;20044;-69
2023/08/19 01:29:47;;;;;;;9.57;4.13;;;;;;;24.51;65.37;100310.88;4067917;29;20055;-69
2023/08/19 01:31:51;;;;;;;9.07;4.15;;;;;;;24.52;65.50;100315.28;4083929;29;20063;-69
2023/08/19 01:33:54;;;;;;;10.60;4.00;;;;;;;24.52;65.65;100312.63;4083563;29;20036;-69
2023/08/19 01:36:06;;;;;;;12.07;4.18;;;;;;;24.56;65.65;100319.47;4080711;29;20044;-69
2023/08/19 01:38:15;;;;;;;7.03;4.10;;;;;;;24.54;65.81;100318.72;4080082;29;20413;-69
2023/08/19 01:40:18;;;;;;;9.30;3.95;;;;;;;24.51;65.66;100321.50;4066716;29;20063;-69
2023/08/19 01:42:24;;;;;;;7.47;4.18;;;;;;;24.51;65.54;100322.34;4063169;29;20048;-69
2023/08/19 01:44:27;;;;;;;15.90;4.20;;;;;;;24.49;65.93;100328.69;4061953;29;20062;-69
2023/08/19 01:46:30;;;;;;;7.15;3.80;;;;;;;24.50;65.59;100315.34;4066454;29;20108;-69
2023/08/19 01:48:33;;;;;;;10.35;4.00;;;;;;;24.50;65.74;100320.66;4086737;29;20578;-69
2023/08/19 01:50:36;;;;;;;11.88;4.05;;;;;;;24.49;66.13;100320.72;4081837;29;20043;-69
2023/08/19 01:52:39;;;;;;;13.13;4.43;;;;;;;24.48;66.21;100316.34;4082831;29;20102;-70
2023/08/19 01:54:42;;;;;;;7.85;3.83;;;;;;;24.47;66.16;100323.44;4080865;29;20075;-69
2023/08/19 01:56:44;;;;;;;8.18;3.47;;;;;;;24.46;66.27;100328.81;4079254;29;20254;-69
2023/08/19 01:58:48;;;;;;;7.72;3.90;;;;;;;24.44;66.51;100317.41;4084330;29;20510;-69
2023/08/19 02:00:51;;;;;;;;;;;;;;;24.32;66.63;100316.19;4084768;29;20453;-69
2023/08/19 02:02:54;;;;;;;10.60;4.07;;;;;;;24.31;66.55;100320.63;4083913;29;19970;-69
2023/08/19 02:04:57;;;;;;;10.00;4.20;;;;;;;24.31;66.52;100315.31;4085039;29;20059;-69
2023/08/19 02:06:59;;;;;;;8.85;4.15;;;;;;;24.33;66.37;100317.91;4068288;29;20055;-69
2023/08/19 02:09:02;;;;;;;7.57;4.25;;;;;;;24.32;66.47;100322.34;4082468;29;20044;-69
2023/08/19 02:11:06;;;;;;;8.07;3.70;;;;;;;24.29;66.34;100322.47;4064213;29;20107;-69
2023/08/19 02:13:08;;;;;;;8.85;4.22;;;;;;;24.27;66.42;100319.03;4083492;29;20050;-69
2023/08/19 02:15:14;;;;;;;8.43;4.00;;;;;;;24.27;66.43;100323.47;4085020;29;20031;-69
2023/08/19 02:17:17;;;;;;;6.25;3.90;;;;;;;24.23;66.26;100318.31;4083859;29;20131;-69
2023/08/19 02:19:20;;;;;;;10.95;4.40;;;;;;;24.22;66.63;100315.72;4083201;29;20039;-69
2023/08/19 02:21:22;;;;;;;11.95;3.95;;;;;;;24.19;67.12;100322.03;4063706;29;20071;-69
2023/08/19 02:23:25;;;;;;;8.77;4.38;;;;;;;24.16;66.86;100318.66;4085065;29;20043;-69
2023/08/19 02:25:28;;;;;;;11.30;4.30;;;;;;;24.12;66.84;100320.56;4068151;29;20059;-69
2023/08/19 02:27:32;;;;;;;5.90;3.80;;;;;;;24.11;66.77;100324.19;4094689;28;20043;-69
2023/08/19 02:29:35;;;;;;;;;;;;;;;23.97;66.83;100324.78;4081451;29;20044;-69
2023/08/19 02:31:40;;;;;;;5.53;3.50;;;;;;;23.97;66.88;100332.75;4083415;29;19969;-69
2023/08/19 02:33:44;;;;;;;8.63;4.68;;;;;;;24.00;66.67;100337.06;4081459;29;20054;-69
2023/08/19 02:35:50;;;;;;;7.68;3.92;;;;;;;24.01;66.55;100336.13;4080071;29;20058;-69
2023/08/19 02:37:53;;;;;;;8.85;4.03;;;;;;;23.98;66.74;100337.13;4078309;29;20043;-69
2023/08/19 02:39:56;;;;;;;6.80;3.63;;;;;;;24.01;66.50;100339.66;4084061;29;20042;-69
2023/08/19 02:41:58;;;;;;;10.00;4.18;;;;;;;24.01;66.54;100344.09;4096865;29;20039;-69
2023/08/19 02:44:02;;;;;;;10.80;4.78;;;;;;;24.01;66.40;100344.09;4077486;29;20090;-69
2023/08/19 02:46:05;;;;;;;9.05;4.43;;;;;;;24.02;66.14;100346.69;4081034;29;20043;-69
2023/08/19 02:48:09;;;;;;;9.37;3.77;;;;;;;24.02;66.10;100349.34;4059982;29;20059;-69
2023/08/19 02:50:12;;;;;;;8.70;4.00;;;;;;;24.02;66.45;100341.38;4074335;29;20088;-68
2023/08/19 02:52:15;;;;;;;8.75;4.03;;;;;;;24.02;66.57;100352.00;4061608;29;20531;-69
2023/08/19 02:54:18;;;;;;;10.70;4.43;;;;;;;24.03;66.04;100345.78;4079851;29;20446;-69
2023/08/19 02:56:21;;;;;;;11.90;4.40;;;;;;;24.04;66.04;100350.13;4080166;29;20047;-68
2023/08/19 02:58:25;;;;;;;7.70;3.45;;;;;;;24.05;66.12;100348.38;4078037;29;20044;-69
2023/08/19 03:00:28;;;;;;;9.85;4.10;;;;;;;24.05;65.88;100348.38;4081981;29;20044;-70
2023/08/19 03:02:30;;;;;;;7.95;4.10;;;;;;;24.06;65.74;100355.38;4080951;29;20044;-69
2023/08/19 03:04:35;;;;;;;12.18;3.75;;;;;;;24.10;65.53;100348.16;4081068;29;20036;-68
2023/08/19 03:06:38;;;;;;;14.25;4.32;;;;;;;24.07;66.01;100349.16;4080125;29;20426;-69
2023/08/19 03:08:41;;;;;;;10.30;4.00;;;;;;;24.06;66.31;100342.09;4080238;29;20079;-69
2023/08/19 03:10:44;;;;;;;7.93;3.63;;;;;;;24.07;66.40;100345.63;4079345;29;20063;-69
2023/08/19 03:12:46;;;;;;;7.70;3.97;;;;;;;24.03;66.92;100342.22;4080186;29;20039;-69
2023/08/19 03:14:49;;;;;;;8.57;3.83;;;;;;;24.00;66.87;100343.22;4080517;29;20035;-69
2023/08/19 03:16:54;;;;;;;10.02;3.75;;;;;;;24.00;66.90;100347.69;4080082;29;20063;-69
2023/08/19 03:18:57;;;;;;;13.52;4.20;;;;;;;23.98;66.50;100350.41;4080647;29;20040;-69
2023/08/19 03:21:01;;;;;;;6.70;4.05;;;;;;;23.98;66.01;100349.56;4080854;29;20553;-69
2023/08/19 03:23:03;;;;;;;;;;;;;;;23.88;66.24;100347.28;4085568;29;20035;-69
2023/08/19 03:25:07;;;;;;;7.25;3.72;;;;;;;23.89;65.95;100348.16;4080895;29;19923;-69
2023/08/19 03:27:10;;;;;;;8.45;4.05;;;;;;;23.93;65.34;100347.06;4070831;29;20095;-69
2023/08/19 03:29:15;;;;;;;7.70;3.95;;;;;;;23.96;64.90;100341.66;4076410;29;20032;-69
2023/08/19 03:31:17;;;;;;;10.35;3.47;;;;;;;23.99;66.03;100344.19;4080225;29;20105;-69
2023/08/19 03:33:21;;;;;;;8.25;3.58;;;;;;;24.00;66.69;100340.56;4064207;29;20131;-68
2023/08/19 03:35:24;;;;;;;10.63;3.85;;;;;;;24.00;66.20;100340.56;4079889;29;20039;-69
2023/08/19 03:37:28;;;;;;;8.63;4.05;;;;;;;24.01;66.15;100336.13;4078337;29;20123;-69
2023/08/19 03:39:31;;;;;;;7.32;3.17;;;;;;;23.97;66.24;100338.06;4095483;28;20689;-69
2023/08/19 03:41:34;;;;;;;10.80;3.67;;;;;;;23.95;66.13;100337.25;4080230;29;20418;-69
2023/08/19 03:43:37;;;;;;;7.85;3.95;;;;;;;23.93;66.01;100341.75;4077275;29;20565;-68
2023/08/19 03:45:46;;;;;;;8.73;3.83;;;;;;;23.89;66.15;100340.19;4079033;29;20043;-70
2023/08/19 03:47:49;;;;;;;9.85;3.80;;;;;;;23.86;66.00;100345.66;4079038;29;20465;-69
2023/08/19 03:49:52;;;;;;;5.75;3.53;;;;;;;23.83;65.74;100345.72;4082204;29;20767;-69
2023/08/19 03:51:55;;;;;;;11.90;3.95;;;;;;;23.79;65.64;100345.00;4083070;29;20047;-69
2023/08/19 03:53:59;;;;;;;8.32;3.78;;;;;;;23.76;65.55;100338.94;4068321;29;20040;-70
2023/08/19 03:56:02;;;;;;;9.88;4.30;;;;;;;23.72;65.74;100337.38;4079313;29;20058;-70
2023/08/19 03:58:05;;;;;;;6.07;3.63;;;;;;;23.68;65.72;100344.56;4083778;29;20142;-69
2023/08/19 04:00:09;;;;;;;13.40;3.92;;;;;;;23.65;66.02;100340.25;4082969;29;20036;-69
2023/08/19 04:02:20;;;;;;;11.07;4.10;;;;;;;23.62;66.32;100339.53;4084456;29;20051;-70
2023/08/19 04:04:23;;;;;;;6.95;3.88;;;;;;;23.59;66.60;100343.19;4083195;29;20123;-69
2023/08/19 04:06:26;;;;;;;6.47;3.25;;;;;;;23.56;66.96;100332.69;4084154;29;20151;-69
2023/08/19 04:08:31;;;;;;;8.98;3.83;;;;;;;23.54;66.81;100337.22;4074094;29;20044;-69
2023/08/19 04:10:35;;;;;;;7.45;3.72;;;;;;;23.49;66.84;100341.84;4082260;29;20035;-69
2023/08/19 04:12:38;;;;;;;7.57;3.88;;;;;;;23.46;66.94;100347.28;4083652;29;20113;-69
2023/08/19 04:14:40;;;;;;;7.88;3.80;;;;;;;23.45;66.82;100353.50;4083330;29;20044;-69
2023/08/19 04:16:45;;;;;;;9.88;3.80;;;;;;;23.39;66.87;100351.94;4082449;29;20071;-68
2023/08/19 04:18:48;;;;;;;6.78;3.85;;;;;;;23.39;67.17;100346.66;4096375;29;20158;-69
2023/08/19 04:20:51;;;;;;;7.88;3.95;;;;;;;23.39;66.81;100345.78;4082361;29;20533;-69
2023/08/19 04:22:54;;;;;;;9.68;3.75;;;;;;;23.39;66.98;100345.78;4082570;29;20054;-68
2023/08/19 04:24:57;;;;;;;7.20;4.03;;;;;;;23.40;67.10;100351.03;4084719;29;20667;-69
2023/08/19 04:27:02;;;;;;;10.00;3.67;;;;;;;23.41;66.88;100339.50;4081801;29;20106;-69
2023/08/19 04:29:05;;;;;;;7.57;3.70;;;;;;;23.40;66.84;100343.06;4080225;29;20075;-69
2023/08/19 04:31:09;;;;;;;9.77;3.53;;;;;;;23.39;66.88;100345.78;4089503;28;20043;-69
2023/08/19 04:33:31;;;;;;;6.78;3.47;;;;;;;23.34;66.98;100349.50;4080361;29;20121;-68
2023/08/19 04:35:34;;;;;;;8.27;4.03;;;;;;;23.33;66.90;100336.28;4081269;29;20036;-69
2023/08/19 04:37:37;;;;;;;9.02;3.53;;;;;;;23.30;67.28;100349.69;4075430;29;20062;-69
2023/08/19 04:39:41;;;;;;;4.43;3.38;;;;;;;23.28;67.09;100359.50;4074783;29;20036;-69
2023/08/19 04:41:59;;;;;;;6.00;3.63;;;;;;;23.26;66.59;100364.00;4091126;29;20043;-69
2023/08/19 04:44:05;;;;;;;5.78;3.80;;;;;;;23.23;66.65;100367.66;4080372;29;20044;-69
2023/08/19 04:46:09;;;;;;;11.77;4.13;;;;;;;23.20;67.09;100359.78;4082027;29;20466;-69
2023/08/19 04:48:13;;;;;;;;;;;;;;;23.09;67.29;100369.94;4083089;29;20039;-69
2023/08/19 04:50:16;;;;;;;7.05;3.30;;;;;;;23.13;67.43;100372.44;4079385;29;19930;-68
2023/08/19 04:52:19;;;;;;;5.82;3.58;;;;;;;23.18;67.30;100359.00;4081056;29;20461;-69
2023/08/19 04:54:22;;;;;;;8.57;3.75;;;;;;;23.17;67.46;100352.84;4083387;29;20047;-68
2023/08/19 04:56:26;;;;;;;12.23;4.25;;;;;;;23.21;67.76;100365.97;4084570;29;20039;-69
2023/08/19 04:58:29;;;;;;;7.70;3.20;;;;;;;23.21;68.05;100363.34;4078834;29;20044;-69
2023/08/19 05:00:33;;;;;;;7.25;3.72;;;;;;;23.23;68.08;100361.47;4077724;29;20498;-69
2023/08/19 05:02:36;;;;;;;7.15;3.08;;;;;;;23.21;68.14;100374.78;4080536;29;20050;-69
2023/08/19 05:04:39;;;;;;;8.65;3.63;;;;;;;23.21;68.20;100373.94;4082747;29;20035;-68
2023/08/19 05:06:41;;;;;;;10.77;3.50;;;;;;;23.19;68.09;100374.00;4082724;29;20035;-69
2023/08/19 05:08:44;;;;;;;8.63;3.88;;;;;;;23.21;68.08;100385.41;4082883;29;20584;-70
2023/08/19 05:10:47;;;;;;;8.20;3.92;;;;;;;23.24;67.87;100381.78;4083024;29;20043;-69
2023/08/19 05:12:50;;;;;;;5.97;3.60;;;;;;;23.21;67.84;100385.41;4066882;29;20429;-69
2023/08/19 05:14:53;;;;;;;8.50;3.17;;;;;;;23.24;68.09;100373.81;4082107;29;20095;-69
2023/08/19 05:16:56;;;;;;;8.35;3.47;;;;;;;23.24;68.07;100379.97;4081602;29;20063;-69
2023/08/19 05:19:07;;;;;;;6.50;3.70;;;;;;;23.26;67.88;100383.44;4082187;29;20562;-70
2023/08/19 05:21:09;;;;;;;6.75;3.25;;;;;;;23.25;67.93;100371.09;4088965;29;20051;-69
2023/08/19 05:23:13;;;;;;;10.48;3.70;;;;;;;23.26;68.03;100378.13;4079216;29;20079;-69
2023/08/19 05:25:16;;;;;;;6.85;3.63;;;;;;;23.28;68.10;100383.38;4066599;29;20392;-69
2023/08/19 05:27:20;;;;;;;6.07;3.50;;;;;;;23.27;68.13;100387.81;4081472;29;20142;-69
2023/08/19 05:29:23;;;;;;;8.80;3.55;;;;;;;23.30;68.17;100386.81;4080821;29;20086;-69
2023/08/19 05:31:26;;;;;;;7.60;3.35;;;;;;;23.29;67.67;100399.22;4082422;29;20035;-69
2023/08/19 05:33:31;;;;;;;6.00;3.15;;;;;;;23.32;67.33;100392.94;4082714;29;20042;-69
2023/08/19 05:35:33;;;;;;;8.85;3.50;;;;;;;23.32;66.62;100403.56;4079921;29;20064;-70
2023/08/19 05:37:36;;;;;;;7.32;3.38;;;;;;;23.33;66.63;100403.50;4074902;29;20529;-70
2023/08/19 05:39:39;;;;;;;8.80;4.20;;;;;;;23.35;66.36;100416.69;4082506;29;20067;-70
2023/08/19 05:41:42;;;;;;;7.20;3.20;;;;;;;23.35;66.10;100414.91;4070124;29;20044;-69
2023/08/19 05:43:45;;;;;;;9.70;3.70;;;;;;;23.39;65.98;100404.16;4081458;29;20047;-69
2023/08/19 05:45:48;;;;;;;9.02;4.10;;;;;;;23.40;65.97;100404.09;4082878;29;20494;-69
2023/08/19 05:47:50;;;;;;;10.48;3.88;;;;;;;23.43;65.83;100403.13;4082141;29;20563;-69
2023/08/19 05:49:55;;;;;;;9.10;2.95;;;;;;;23.48;65.84;100407.31;4081151;29;20048;-70
2023/08/19 05:51:58;;;;;;;4.32;2.75;;;;;;;23.52;65.98;100413.34;4077123;29;20058;-69
2023/08/19 05:54:02;;;;;;;6.53;3.17;;;;;;;23.58;66.14;100417.53;4081905;29;20106;-70
2023/08/19 05:56:04;;;;;;;7.47;3.35;;;;;;;23.59;66.02;100414.81;4080463;29;20048;-69
2023/08/19 05:58:07;;;;;;;8.80;3.45;;;;;;;23.63;66.22;100416.44;4080701;29;20134;-69
2023/08/19 06:00:10;;;;;;;7.03;3.50;;;;;;;23.65;66.49;100405.75;4082069;29;20043;-69
2023/08/19 06:02:16;;;;;;;7.82;3.47;;;;;;;23.67;66.68;100410.09;4082248;29;20051;-69
2023/08/19 06:04:19;;;;;;;13.05;4.00;;;;;;;23.73;66.75;100413.41;4081829;29;20035;-69
2023/08/19 06:06:23;;;;;;;6.18;3.20;;;;;;;23.75;66.50;100416.88;4080991;29;20067;-69
2023/08/19 06:08:26;;;;;;;10.35;3.50;;;;;;;23.80;66.62;100428.13;4082393;29;20413;-69
2023/08/19 06:10:29;;;;;;;7.95;3.15;;;;;;;23.82;65.98;100428.97;4081357;29;20043;-69
2023/08/19 06:12:32;;;;;;;7.28;3.25;;;;;;;23.84;65.80;100427.09;4081690;29;20130;-69
2023/08/19 06:14:34;;;;;;;7.70;3.33;;;;;;;23.88;65.62;100428.72;4081834;29;20486;-70
2023/08/19 06:16:36;;;;;;;7.72;3.20;;;;;;;23.92;65.98;100430.34;4081104;29;20055;-69
2023/08/19 06:18:39;;;;;;;6.53;3.33;;;;;;;24.00;65.86;100432.66;4081843;29;20035;-70
2023/08/19 06:20:42;;;;;;;11.02;3.53;;;;;;;24.04;65.41;100434.25;4075312;29;20099;-69
2023/08/19 06:22:46;;;;;;;7.68;2.92;;;;;;;24.11;64.41;100440.16;4080055;29;20046;-69
2023/08/19 06:24:49;;;;;;;6.90;3.08;;;;;;;24.13;64.68;100433.00;4081224;29;20122;-69
2023/08/19 06:26:52;;;;;;;6.20;2.97;;;;;;;24.19;64.88;100433.59;4081345;29;20039;-69
2023/08/19 06:28:55;;;;;;;8.77;3.15;;;;;;;24.25;64.16;100448.41;4069222;29;20123;-69
2023/08/19 06:30:58;;;;;;;8.60;2.88;;;;;;;24.36;63.33;100451.47;4100510;23;20047;-70
2023/08/19 06:33:02;;;;;;;5.95;3.17;;;;;;;24.39;63.56;100455.78;4109500;28;20531;-70
2023/08/19 06:35:06;;;;;;;5.40;2.70;;;;;;;24.43;63.59;100460.06;4102417;28;20166;-70
2023/08/19 06:37:12;;;;;;;4.80;2.95;;;;;;;24.49;63.60;100464.25;4101307;28;20142;-69
2023/08/19 06:39:24;;;;;;;5.82;2.67;;;;;;;24.57;63.25;100468.28;4109951;28;20151;-69
2023/08/19 06:41:29;;;;;;;8.27;3.10;;;;;;;24.63;62.63;100469.81;4092399;29;20035;-70
2023/08/19 06:43:32;;;;;;;3.78;2.72;;;;;;;24.71;62.50;100472.16;4107044;28;20059;-70
2023/08/19 06:45:35;;;;;;;5.15;2.83;;;;;;;24.76;62.53;100480.78;4102513;28;20069;-70
2023/08/19 06:47:39;;;;;;;7.18;2.85;;;;;;;24.82;61.98;100484.97;4109264;28;20114;-70
2023/08/19 06:49:43;;;;;;;7.13;2.90;;;;;;;24.90;62.02;100482.81;4101649;28;20452;-70
2023/08/19 06:51:46;;;;;;;3.92;2.55;;;;;;;24.98;62.32;100485.97;4107378;28;20070;-70
2023/08/19 06:53:50;;;;;;;7.88;2.63;;;;;;;25.03;62.20;100478.66;4101077;28;20043;-69
2023/08/19 06:56:05;;;;;;;3.20;2.20;;;;;;;25.09;62.21;100482.84;4104887;28;20035;-69
2023/08/19 06:58:13;;;;;;;9.18;2.85;;;;;;;25.13;61.56;100481.78;4102677;28;20070;-69
2023/08/19 07:00:17;;;;;;;7.78;2.80;;;;;;;25.20;61.53;100480.56;4094309;28;20058;-69
2023/08/19 07:02:21;;;;;;;7.07;3.22;;;;;;;25.28;61.07;100485.53;4095977;28;20117;-69
2023/08/19 07:04:27;;;;;;;5.05;2.60;;;;;;;25.37;61.16;100477.13;4100912;28;20043;-68
2023/08/19 07:06:32;;;;;;;5.45;2.55;;;;;;;25.45;60.32;100474.09;4097168;28;20126;-69
2023/08/19 07:08:40;;;;;;;4.72;2.60;;;;;;;25.49;60.36;100475.69;4105341;28;20061;-68
2023/08/19 07:10:45;;;;;;;7.50;3.13;;;;;;;25.56;59.82;100476.25;4103433;28;20046;-69
2023/08/19 07:12:49;;;;;;;5.97;3.20;;;;;;;25.66;60.02;100472.22;4102612;28;20058;-69
2023/08/19 07:14:53;;;;;;;3.47;2.38;;;;;;;25.75;59.07;100477.06;4108162;28;20066;-69
2023/08/19 07:17:00;;;;;;;7.67;3.03;;;;;;;25.87;59.81;100472.09;4103368;28;20128;-68
2023/08/19 07:19:06;;;;;;;5.53;2.92;;;;;;;25.83;58.98;100466.06;4111793;28;20302;-68
2023/08/19 07:21:10;;;;;;;6.93;3.10;;;;;;;25.86;59.62;100468.56;4097283;28;20053;-68
2023/08/19 07:23:15;;;;;;;5.85;3.03;;;;;;;25.86;59.12;100481.00;4099566;28;20057;-68
2023/08/19 07:25:19;;;;;;;8.40;2.83;;;;;;;25.84;58.82;100486.41;4108781;28;20125;-68
2023/08/19 07:27:22;;;;;;;;;;;;;;;25.90;58.30;100486.09;4109106;28;20047;-69
2023/08/19 07:29:27;;;;;;;3.95;2.58;;;;;;;25.85;58.88;100490.81;4094609;28;19923;-68
2023/08/19 07:31:30;;;;;;;7.85;3.05;;;;;;;25.85;57.74;100498.81;4108874;28;20054;-69
2023/08/19 07:33:33;;;;;;;4.22;2.40;;;;;;;25.78;57.90;100495.56;4121053;28;20065;-68
2023/08/19 07:35:36;;;;;;;5.82;2.75;;;;;;;25.82;57.63;100501.63;4082308;28;20131;-68
2023/08/19 07:37:39;;;;;;;6.10;2.67;;;;;;;25.83;57.07;100507.81;4105532;28;20031;-67
2023/08/19 07:39:42;;;;;;;7.03;2.90;;;;;;;25.76;57.12;100502.78;4122223;28;20129;-67
2023/08/19 07:41:44;;;;;;;6.07;2.63;;;;;;;25.72;57.43;100503.84;4118230;28;20042;-67
2023/08/19 07:43:47;;;;;;;6.93;3.00;;;;;;;25.76;57.56;100513.44;4101281;28;20058;-67
2023/08/19 07:45:51;;;;;;;8.27;2.80;;;;;;;25.88;57.87;100498.66;4096702;28;20039;-66
2023/08/19 07:47:53;;;;;;;;;;;;;;;25.95;57.54;100493.91;4097264;28;20075;-67
2023/08/19 07:49:56;;;;;;;7.20;2.92;;;;;;;26.05;57.43;100497.84;4097798;28;19986;-67
2023/08/19 07:51:59;;;;;;;7.10;2.83;;;;;;;26.20;57.09;100498.03;4101430;28;20039;-67
2023/08/19 07:54:02;;;;;;;4.70;2.67;;;;;;;26.27;56.32;100497.63;4101512;28;20580;-67
2023/08/19 07:56:05;;;;;;;10.48;3.85;;;;;;;26.39;55.32;100493.47;4103535;28;20125;-67
2023/08/19 07:58:08;;;;;;;6.95;3.00;;;;;;;26.51;55.59;100485.78;4106080;28;20054;-67
2023/08/19 08:00:12;;;;;;;8.15;3.60;;;;;;;26.59;54.98;100484.44;4106301;28;20078;-67
2023/08/19 08:02:16;;;;;;;6.72;3.35;;;;;;;26.71;54.92;100493.63;4108062;28;20054;-67
2023/08/19 08:04:19;;;;;;;;;;;;;;;26.75;55.11;100499.66;4093236;28;20039;-67
2023/08/19 08:06:22;;;;;;;7.00;3.63;;;;;;;26.68;54.68;100498.25;4102390;28;19930;-66
2023/08/19 08:08:24;;;;;;;7.00;3.08;;;;;;;26.85;54.94;100505.38;4104540;28;20042;-66
2023/08/19 08:10:27;;;;;;;8.75;3.60;;;;;;;26.93;55.34;100505.84;4097489;28;20071;-66
2023/08/19 08:12:33;;;;;;;4.38;3.28;;;;;;;26.96;55.00;100509.19;4105483;28;20042;-66
2023/08/19 08:14:36;;;;;;;12.07;4.40;;;;;;;27.14;55.50;100512.66;4100971;28;20034;-66
2023/08/19 08:16:39;;;;;;;8.88;3.53;;;;;;;27.11;55.36;100512.84;4094958;28;20066;-61
2023/08/19 08:18:43;;;;;;;11.27;4.57;;;;;;;27.24;54.24;100509.50;4106896;28;20508;-60
2023/08/19 08:20:46;;;;;;;6.28;3.35;;;;;;;27.26;54.34;100511.16;4118861;28;20480;-61
2023/08/19 08:22:49;;;;;;;7.60;3.80;;;;;;;27.37;54.40;100512.41;4104745;28;20511;-61
2023/08/19 08:24:52;;;;;;;7.20;3.70;;;;;;;27.47;54.25;100506.44;4107493;28;20035;-62
2023/08/19 08:26:55;;;;;;;7.95;3.83;;;;;;;27.62;54.61;100509.22;4105652;28;20121;-61
2023/08/19 08:28:58;;;;;;;8.65;3.70;;;;;;;27.74;54.93;100508.50;4105766;28;20035;-61
2023/08/19 08:31:01;;;;;;;10.57;4.20;;;;;;;27.80;54.24;100510.84;4116705;28;20644;-64
2023/08/19 08:33:05;;;;;;;6.68;4.00;;;;;;;27.86;53.91;100510.50;4105962;28;20516;-63
2023/08/19 08:35:09;;;;;;;7.78;4.43;;;;;;;28.01;55.07;100500.75;4109073;28;20038;-67
2023/08/19 08:37:12;;;;;;;6.78;3.85;;;;;;;28.01;54.14;100513.25;4119723;28;20049;-65
2023/08/19 08:39:15;;;;;;;9.07;4.43;;;;;;;28.05;53.42;100506.75;4109042;28;20389;-62
2023/08/19 08:41:18;;;;;;;7.07;3.80;;;;;;;28.15;53.90;100509.78;4102799;28;20042;-62
2023/08/19 08:43:22;;;;;;;9.63;4.10;;;;;;;28.26;54.31;100517.19;4098673;28;20043;-62
2023/08/19 08:45:26;;;;;;;7.32;3.88;;;;;;;28.36;53.31;100519.19;4102757;28;20051;-62
2023/08/19 08:47:29;;;;;;;;;;;;;;;28.21;53.81;100514.75;4100293;28;20405;-62
2023/08/19 08:49:33;;;;;;;8.30;4.78;;;;;;;28.17;53.49;100514.09;4102683;28;19922;-64
2023/08/19 08:51:39;;;;;;;6.22;3.58;;;;;;;28.19;54.29;100517.50;4101555;28;20049;-72
2023/08/19 08:53:42;;;;;;;6.25;3.25;;;;;;;28.22;53.87;100511.13;4094695;28;20046;-68
2023/08/19 08:55:45;;;;;;;9.48;4.50;;;;;;;28.37;54.43;100509.34;4099597;28;20098;-67
2023/08/19 08:57:48;;;;;;;7.40;4.37;;;;;;;28.48;53.84;100514.94;4114188;28;20055;-64
2023/08/19 08:59:52;;;;;;;7.82;4.13;;;;;;;28.59;53.16;100518.78;4100186;28;20039;-63
2023/08/19 09:01:56;;;;;;;5.63;3.35;;;;;;;28.54;54.25;100517.22;4100242;28;20568;-62
2023/08/19 09:04:03;;;;;;;11.10;4.07;;;;;;;28.62;54.52;100523.97;4098442;28;20105;-62
2023/08/19 09:06:15;;;;;;;7.57;4.13;;;;;;;28.56;54.63;100519.81;4103887;28;20043;-63
2023/08/19 09:08:26;;;;;;;9.13;4.30;;;;;;;28.56;54.97;100510.00;4099912;28;20036;-62
2023/08/19 09:10:33;;;;;;;8.93;4.22;;;;;;;28.58;54.43;100517.03;4104907;28;20073;-63
2023/08/19 09:12:36;;;;;;;8.80;4.05;;;;;;;28.52;54.21;100513.78;4109294;28;20046;-63
2023/08/19 09:14:41;;;;;;;9.68;4.68;;;;;;;28.59;53.61;100513.41;4103448;28;20650;-63
2023/08/19 09:16:44;;;;;;;7.75;3.97;;;;;;;28.46;54.08;100500.81;4080494;29;20142;-63
2023/08/19 09:18:48;;;;;;;18.83;5.00;;;;;;;28.47;53.52;100512.34;4110579;28;20039;-63
2023/08/19 09:20:51;;;;;;;7.47;4.10;;;;;;;28.41;53.94;100508.22;4107869;28;20050;-64
2023/08/19 09:23:05;;;;;;;6.53;3.63;;;;;;;28.32;53.38;100501.63;4100656;28;20042;-63
2023/08/19 09:25:15;;;;;;;7.88;3.97;;;;;;;28.35;54.45;100503.25;4100066;28;20133;-62
2023/08/19 09:27:25;;;;;;;11.93;4.10;;;;;;;28.41;55.35;100510.06;4099941;28;20094;-63
2023/08/19 09:29:28;;;;;;;8.27;4.60;;;;;;;28.42;55.06;100504.59;4101085;28;20078;-64
2023/08/19 09:31:31;;;;;;;6.18;3.78;;;;;;;28.44;54.85;100500.00;4103122;28;20047;-66
2023/08/19 09:33:42;;;;;;;8.30;4.28;;;;;;;28.48;54.88;100500.72;4104798;28;20051;-64
2023/08/19 09:35:45;;;;;;;11.25;4.30;;;;;;;28.47;54.62;100499.81;4098338;28;20529;-63
2023/08/19 09:38:01;;;;;;;7.38;4.20;;;;;;;28.47;54.50;100489.13;4095802;28;20047;-64